Logo AVAMET
Benvolgut visitant, si us plau, ingressa Recuperar contrasenya

Inforatge Calp

Dades diàries. Acumulats / Últims 30 dies disponibles

Data Temperatura (°C) Humitat rel. (%) Pressió rel. (hPa) Vent (km/h) Precipitació
Mínima Mitjana Màxima Amplitud
tèrmica
Mínima Mitjana Màxima Mínima Mitjana Màxima Predom. Mitjana Ràfega
màxima
Total
(mm)
Índex-n
Mínima Mitjana Màxima Mínima Mitjana Màxima n
0 a 1
P0 max
mm 5'
Dades mensuals acumulades fins l'últim dia disponible
01/2020 6,9 9,4 12,1 12,3 13,2 15,2 20,6 13,7 33 72 93 1.017 1.031 1.038   9,2 88,5 130,2
Dades anuals acumulades fins l'últim dia disponible
2020 6,9 9,4 12,1 12,3 13,2 15,2 20,6 13,7 33 72 93 1.017 1.031 1.038   9,2 88,5 130,2
Últims 30 dies disponibles
21-01-2020 10,8     13,1     15,3 4,5 71 81 90 1.017 1.019 1.023 ENE 12,7 51,5 5,0 0,34 1,40
20-01-2020 7,2     10,3     13,2 6,0 78 89 93 1.018 1.021 1.023 NNE 17,9 82,1 72,0 0,24 2,30
19-01-2020 8,2     11,6     15,6 7,4 58 73 91 1.017 1.020 1.025 NW 24,3 88,5 35,0 0,17 1,00
18-01-2020 11,3     13,8     15,8 4,5 44 62 75 1.025 1.032 1.036 WSW 8,9 46,7 0,0
17-01-2020 10,8     15,6     20,6 9,8 33 54 80 1.032 1.033 1.036 NW 5,8 35,4 0,0
16-01-2020 12,1     13,9     15,7 3,6 54 71 85 1.031 1.032 1.034 S 6,3 27,4 0,0
15-01-2020 9,1     12,8     16,1 7,0 47 60 72 1.027 1.030 1.032 WSW 5,5 30,6 0,0
14-01-2020 8,0     11,9     14,4 6,4 50 63 77 1.026 1.027 1.028 WSW 7,9 37,0 0,0
13-01-2020 8,0     11,6     13,6 5,6 48 67 79 1.027 1.030 1.034 WSW 12,2 45,1 0,0
12-01-2020 6,9     11,2     15,3 8,4 50 68 81 1.032 1.034 1.035 W 5,5 24,1 0,0
11-01-2020 10,1     11,8     14,4 4,3 62 72 81 1.032 1.034 1.036 NNW 7,6 33,8 0,0
10-01-2020 9,2     11,8     15,2 6,0 56 76 92 1.027 1.029 1.032 NNW 12,1 54,7 18,2 0,49 1,30
09-01-2020 9,5     12,4     15,2 5,7 62 76 84 1.029 1.032 1.035 NW 8,5 46,7 0,0
08-01-2020 8,4     12,2     17,2 8,8 52 75 86 1.032 1.034 1.035 NNW 5,3 32,2 0,0
07-01-2020 8,1     11,6     14,1 6,0 74 82 90 1.033 1.035 1.037 W 8,0 32,2 0,0
06-01-2020 9,7     12,1     14,3 4,6 65 75 87 1.032 1.033 1.035 S 5,0 22,5 0,0
05-01-2020 8,9     12,6     15,4 6,5 53 66 76 1.032 1.033 1.036 SW 5,5 22,5 0,0
04-01-2020 9,1     11,7     15,2 6,1 56 73 81 1.036 1.037 1.038 NNW 3,9 19,3 0,0
03-01-2020 10,2     11,7     13,3 3,1 73 79 87 1.034 1.035 1.037 WSW 10,9 40,2 0,0
02-01-2020 11,6     12,5     14,5 2,9 67 74 79 1.035 1.036 1.038 WSW 13,2 38,6 0,0
01-01-2020 9,3     12,1     14,4 5,1 72 78 85 1.035 1.036 1.038 WSW 6,8 30,6 0,0
31-12-2019 8,3     11,6     14,3 6,0 72 81 86 1.036 1.037 1.039 SSO 5,0 27,4 0,0
30-12-2019 9,2     12,2     15,7 6,5 63 77 91 1.036 1.037 1.038 NNW 4,0 20,9 0,0
29-12-2019 8,8     11,5     14,6 5,8 73 83 91 1.035 1.036 1.038 NNW 4,0 17,7 0,0
28-12-2019 10,3     12,3     14,4 4,1 76 84 92 1.033 1.035 1.036 NW 3,9 17,7 0,0
27-12-2019 11,8     14,2     16,3 4,5 67 78 91 1.032 1.034 1.035 SSW 6,1 27,4 0,0
26-12-2019 13,2     16,0     20,1 6,9 41 63 84 1.026 1.029 1.034 NNE 3,4 24,1 0,0
25-12-2019 13,3     15,9     18,1 4,8 56 73 93 1.027 1.028 1.031 SSE 4,3 20,9 0,0
24-12-2019 15,2     17,4     20,9 5,7 48 59 82 1.030 1.031 1.033 SSE 2,7 16,1 0,0
23-12-2019 14,6     17,5     20,8 6,2 42 53 75 1.024 1.029 1.032 NW 4,8 27,4 0,0
Últims 13 mesos disponibles
12/2019 8,3 12,3 16,5 14,8 13,4 17,5 22,3 14,0 41 71 88 1.009 1.023 1.037 NNW 7,4 86,9 71,6
11/2019 9,3 13,8 21,6 16,5 14,4 19,3 26,2 16,9 35 53 78 1.003 1.015 1.023 NW 10,8 95,0 13,8
10/2019 12,8 17,9 22,8 20,9 17,7 23,8 30,2 17,4 39 69 83 1.013 1.021 1.026 SSO 8,3 77,2 54,0
09/2019 15,6 21,0 24,6 23,7 23,0 26,5 29,9 14,3 56 76 85 1.014 1.022 1.027 SO 9,3 75,9 86,2
08/2019 19,6 23,1 25,7 26,1 27,0 29,2 35,3 15,7 59 76 88 1.015 1.020 1.024 S 8,0 50,0 14,2
07/2019 21,6 23,5 26,9 26,5 27,6 29,9 34,2 12,6 39 68 84 1.010 1.019 1.025 S 7,6 69,3 1,6
06/2019 15,2 18,9 24,5 22,6 22,3 26,1 34,8 19,6 40 68 84 1.013 1.020 1.027 S 8,6 59,6 0,2
05/2019 11,8 15,4 19,7 18,5 17,8 21,7 27,2 15,4 51 71 85 1.010 1.020 1.030 S 8,6 51,9 6,0
04/2019 9,8 12,9 15,0 15,6 14,3 18,4 24,8 15,0 46 70 93 1.004 1.017 1.030 SSO 9,0 70,9 74,0
03/2019 7,7 11,4 14,1 14,6 12,2 17,7 21,1 13,4 49 63 89 1.016 1.027 1.035 SSO 8,7 56,3 20,2
02/2019 6,6 9,7 12,3 12,8 12,9 15,9 19,2 12,6 31 64 78 1.001 1.029 1.038 SSO 7,8 95,0 1,8
01/2019 5,2 9,8 13,6 12,8 12,2 15,8 20,3 15,1 34 58 78 1.008 1.023 1.035 OSO 7,8 96,7 4,2
12/2018 7,8 11,7 14,3 14,6 13,3 17,6 21,1 13,3 46 69 83 1.013 1.029 1.035 SSO 5,4 69,3 18,4
Tots els anys disponibles
2019 5,2 15,9 26,9 18,9 12,2 21,9 35,3 30,1 31 67 93 1.001 1.021 1.038 SSO 8,5 96,7 347,8
2018 3,9 16,0 27,3 18,9 9,4 21,9 33,0 29,1 37 69 92 998 1.020 1.038 SSO 7,9 101,9 370,0
Temperatura (°C)
Humitat relativa (%)
Velocitat del vent i ràfega màxima (km/h)
Direcció del vent (°)
Pressió (hPa)
Precipitació (mm)
Nota sobre les dades: s'avisa a l'usuari de la provisionalitat i no oficialitat d'aquestes dades
Logo AVAMET blanc
Web allotjada a Sollutia
Llicència de Creative CommonsLa web d'AVAMET i els seus continguts estan subjectes a una llicència de
Reconeixement - No Comercial - Compartir igual
Últimes estacions: Xixona - Els Ameradors (Soci), Agres - El Tossal (Soci), Xàbia - Bevenguts (MeteoXàbia), Llíria (Aj. Soci/Inforatge), Orihuela - Lo Capitán, Cox & Guardamar del Segura - horta (Meteorihuela), l'Alcúdia - Carriona & el Real de Gandia (Inforatge), Benicàssim - les Vil·les (Soci),  l'Alfàs del Pi - l'Albir (Soci), - - -